Hlavní strana
METAR-TAF:

METAR-TAF

Letiště :

Kuvajt, Kuvajt

zeměpisná šířka: 29-13N, zeměpisná délka: 047-59E, výška: 55 m

Aktuální stav počasí

Zpráva byla vytvořena před 25 minutami, v 22:00 UTC
Jihovýchodní vítr 7 kt
Teplota 18°C
Vlhkost vzduchu 64%
Tlak 1015 hPa
Viditelnost 10 km a více
Žádná oblačnost pod 1500 m, nevyskytují se cumulonimby.

METAR: OKBK 182200Z 14007KT CAVOK 18/11 Q1015 NOSIG

Čas: 01:25 (22:25 UTC)

Předpověď počasí

Zpráva byla vytvořena před 5 hodinami a 40 minutami, v 16:45 UTC
Předpověď platná od 18 v 18 UTC do 19 v 24 UTC
Jihovýchodní vítr 12 kt
Viditelnost: 7000 m
Skoro jasno ve výšce 4000 ft
Oblačno až skoro zataženo ve výšce 8000 ft
Dočasný
od 18 v 18 UTC do 19 v 06 UTC
Viditelnost: 3000 m

TAF: OKBK 181645Z 1818/1924 14012KT 7000 FEW040 BKN080 TEMPO 1818/1906 3000 RA/HZ

Stav a předpovědi počasí z více než 4 000 letišť (zprávy METAR a TAF).

Červené a žluté tečky na mapě představují dostupné meteorologické stanice.

Když kurzor umístíte na tečku, zobrazí se název stanice.

Pak kliknutím zobrazíte stav a předpověď počasí.

Chcete-li změnit mapu, kliknutím na zelené tlačítko se znaménkem +mapu přiblížíte, kliknutím na zelené tlačítko se znaménkem – mapu oddálíte a kliknutím na zelené šipky přejdete na sousední mapy.


METAR-TAF: